sensor_id;sensor_type;location;lat;lon;timestamp;P1;durP1;ratioP1;P2;durP2;ratioP2
45065;SDS011;30830;53.704;10.004;2023-08-06T00:02:22;2.58;;;2.38;;
45065;SDS011;30830;53.704;10.004;2023-08-06T00:04:48;2.05;;;1.88;;
45065;SDS011;30830;53.704;10.004;2023-08-06T00:07:14;2.85;;;2.50;;
45065;SDS011;30830;53.704;10.004;2023-08-06T00:09:39;2.85;;;2.28;;
45065;SDS011;30830;53.704;10.004;2023-08-06T00:12:05;1.95;;;1.55;;
45065;SDS011;30830;53.704;10.004;2023-08-06T00:14:31;2.05;;;1.90;;
45065;SDS011;30830;53.704;10.004;2023-08-06T00:16:56;3.47;;;2.22;;
45065;SDS011;30830;53.704;10.004;2023-08-06T00:19:22;2.72;;;2.03;;
45065;SDS011;30830;53.704;10.004;2023-08-06T00:21:47;3.75;;;2.22;;
45065;SDS011;30830;53.704;10.004;2023-08-06T00:24:13;2.30;;;2.10;;
45065;SDS011;30830;53.704;10.004;2023-08-06T00:26:38;4.38;;;2.53;;
45065;SDS011;30830;53.704;10.004;2023-08-06T00:29:04;2.70;;;2.22;;
45065;SDS011;30830;53.704;10.004;2023-08-06T00:31:30;3.45;;;2.33;;
45065;SDS011;30830;53.704;10.004;2023-08-06T00:33:55;2.80;;;1.98;;
45065;SDS011;30830;53.704;10.004;2023-08-06T00:36:21;2.55;;;2.25;;
45065;SDS011;30830;53.704;10.004;2023-08-06T00:38:46;3.08;;;2.78;;
45065;SDS011;30830;53.704;10.004;2023-08-06T00:41:12;4.07;;;3.25;;
45065;SDS011;30830;53.704;10.004;2023-08-06T00:43:38;3.22;;;2.70;;
45065;SDS011;30830;53.704;10.004;2023-08-06T00:46:03;2.80;;;2.60;;
45065;SDS011;30830;53.704;10.004;2023-08-06T00:48:29;3.08;;;2.30;;
45065;SDS011;30830;53.704;10.004;2023-08-06T00:50:54;2.60;;;2.40;;
45065;SDS011;30830;53.704;10.004;2023-08-06T00:53:20;3.50;;;2.75;;
45065;SDS011;30830;53.704;10.004;2023-08-06T00:55:46;2.72;;;2.53;;
45065;SDS011;30830;53.704;10.004;2023-08-06T00:58:12;3.92;;;2.35;;
45065;SDS011;30830;53.704;10.004;2023-08-06T01:00:40;2.53;;;2.20;;
45065;SDS011;30830;53.704;10.004;2023-08-06T01:03:06;2.65;;;2.45;;
45065;SDS011;30830;53.704;10.004;2023-08-06T01:05:31;5.18;;;2.70;;
45065;SDS011;30830;53.704;10.004;2023-08-06T01:13:41;4.63;;;2.70;;
45065;SDS011;30830;53.704;10.004;2023-08-06T01:16:12;2.22;;;2.03;;
45065;SDS011;30830;53.704;10.004;2023-08-06T01:18:41;3.75;;;2.88;;
45065;SDS011;30830;53.704;10.004;2023-08-06T01:21:11;2.72;;;2.45;;
45065;SDS011;30830;53.704;10.004;2023-08-06T01:23:39;3.03;;;2.72;;
45065;SDS011;30830;53.704;10.004;2023-08-06T01:26:19;2.67;;;2.45;;
45065;SDS011;30830;53.704;10.004;2023-08-06T01:28:56;3.92;;;2.58;;
45065;SDS011;30830;53.704;10.004;2023-08-06T01:31:36;2.53;;;2.33;;
45065;SDS011;30830;53.704;10.004;2023-08-06T01:34:04;4.13;;;2.38;;
45065;SDS011;30830;53.704;10.004;2023-08-06T01:36:34;2.97;;;2.30;;
45065;SDS011;30830;53.704;10.004;2023-08-06T01:39:01;4.43;;;2.78;;
45065;SDS011;30830;53.704;10.004;2023-08-06T01:41:26;2.45;;;2.25;;
45065;SDS011;30830;53.704;10.004;2023-08-06T01:43:52;2.78;;;2.22;;
45065;SDS011;30830;53.704;10.004;2023-08-06T01:46:17;2.83;;;2.45;;
45065;SDS011;30830;53.704;10.004;2023-08-06T01:48:43;2.80;;;2.50;;
45065;SDS011;30830;53.704;10.004;2023-08-06T01:51:09;4.82;;;2.70;;
45065;SDS011;30830;53.704;10.004;2023-08-06T01:53:34;6.28;;;3.15;;
45065;SDS011;30830;53.704;10.004;2023-08-06T01:56:00;3.08;;;2.53;;
45065;SDS011;30830;53.704;10.004;2023-08-06T01:58:26;3.00;;;2.58;;
45065;SDS011;30830;53.704;10.004;2023-08-06T02:00:52;2.90;;;2.47;;
45065;SDS011;30830;53.704;10.004;2023-08-06T02:03:17;3.50;;;3.20;;
45065;SDS011;30830;53.704;10.004;2023-08-06T02:05:43;2.53;;;2.33;;
45065;SDS011;30830;53.704;10.004;2023-08-06T02:08:10;3.30;;;2.75;;
45065;SDS011;30830;53.704;10.004;2023-08-06T02:10:36;3.88;;;2.75;;
45065;SDS011;30830;53.704;10.004;2023-08-06T02:13:02;2.97;;;2.75;;
45065;SDS011;30830;53.704;10.004;2023-08-06T02:15:27;3.47;;;3.17;;
45065;SDS011;30830;53.704;10.004;2023-08-06T02:17:53;4.93;;;3.35;;
45065;SDS011;30830;53.704;10.004;2023-08-06T02:20:19;3.20;;;2.90;;
45065;SDS011;30830;53.704;10.004;2023-08-06T02:22:44;6.18;;;2.92;;
45065;SDS011;30830;53.704;10.004;2023-08-06T02:25:10;5.60;;;3.30;;
45065;SDS011;30830;53.704;10.004;2023-08-06T02:27:36;3.58;;;2.42;;
45065;SDS011;30830;53.704;10.004;2023-08-06T02:30:02;4.07;;;3.00;;
45065;SDS011;30830;53.704;10.004;2023-08-06T02:32:29;3.45;;;2.58;;
45065;SDS011;30830;53.704;10.004;2023-08-06T02:34:56;3.15;;;2.63;;
45065;SDS011;30830;53.704;10.004;2023-08-06T02:37:22;3.90;;;2.67;;
45065;SDS011;30830;53.704;10.004;2023-08-06T02:39:47;4.50;;;3.13;;
45065;SDS011;30830;53.704;10.004;2023-08-06T02:42:13;3.25;;;2.92;;
45065;SDS011;30830;53.704;10.004;2023-08-06T02:44:38;4.07;;;2.88;;
45065;SDS011;30830;53.704;10.004;2023-08-06T02:47:04;4.80;;;3.63;;
45065;SDS011;30830;53.704;10.004;2023-08-06T02:49:30;4.45;;;2.80;;
45065;SDS011;30830;53.704;10.004;2023-08-06T02:51:56;3.40;;;3.10;;
45065;SDS011;30830;53.704;10.004;2023-08-06T02:54:21;7.15;;;3.90;;
45065;SDS011;30830;53.704;10.004;2023-08-06T02:56:47;5.30;;;3.50;;
45065;SDS011;30830;53.704;10.004;2023-08-06T02:59:13;4.07;;;2.88;;
45065;SDS011;30830;53.704;10.004;2023-08-06T03:01:38;3.92;;;3.22;;
45065;SDS011;30830;53.704;10.004;2023-08-06T03:04:04;3.58;;;3.00;;
45065;SDS011;30830;53.704;10.004;2023-08-06T03:06:30;7.72;;;3.40;;
45065;SDS011;30830;53.704;10.004;2023-08-06T03:08:56;4.55;;;2.58;;
45065;SDS011;30830;53.704;10.004;2023-08-06T03:11:21;4.20;;;3.13;;
45065;SDS011;30830;53.704;10.004;2023-08-06T03:13:47;4.22;;;3.10;;
45065;SDS011;30830;53.704;10.004;2023-08-06T03:16:13;3.05;;;2.75;;
45065;SDS011;30830;53.704;10.004;2023-08-06T03:18:39;4.22;;;3.22;;
45065;SDS011;30830;53.704;10.004;2023-08-06T03:21:04;3.20;;;2.90;;
45065;SDS011;30830;53.704;10.004;2023-08-06T03:23:33;5.15;;;2.85;;
45065;SDS011;30830;53.704;10.004;2023-08-06T03:26:02;4.28;;;2.50;;
45065;SDS011;30830;53.704;10.004;2023-08-06T03:28:28;4.03;;;2.83;;
45065;SDS011;30830;53.704;10.004;2023-08-06T03:31:02;3.13;;;2.63;;
45065;SDS011;30830;53.704;10.004;2023-08-06T03:33:28;3.60;;;3.03;;
45065;SDS011;30830;53.704;10.004;2023-08-06T03:35:54;5.30;;;3.25;;
45065;SDS011;30830;53.704;10.004;2023-08-06T03:38:20;4.97;;;3.05;;
45065;SDS011;30830;53.704;10.004;2023-08-06T03:40:46;4.30;;;2.95;;
45065;SDS011;30830;53.704;10.004;2023-08-06T03:43:12;4.38;;;2.70;;
45065;SDS011;30830;53.704;10.004;2023-08-06T03:45:37;3.67;;;2.80;;
45065;SDS011;30830;53.704;10.004;2023-08-06T03:48:03;4.40;;;3.05;;
45065;SDS011;30830;53.704;10.004;2023-08-06T03:50:29;4.18;;;2.70;;
45065;SDS011;30830;53.704;10.004;2023-08-06T03:52:55;3.15;;;2.83;;
45065;SDS011;30830;53.704;10.004;2023-08-06T03:55:20;5.40;;;3.20;;
45065;SDS011;30830;53.704;10.004;2023-08-06T03:57:46;7.97;;;3.30;;
45065;SDS011;30830;53.704;10.004;2023-08-06T04:00:12;4.35;;;2.92;;
45065;SDS011;30830;53.704;10.004;2023-08-06T04:02:38;4.63;;;2.85;;
45065;SDS011;30830;53.704;10.004;2023-08-06T04:05:04;4.90;;;2.90;;
45065;SDS011;30830;53.704;10.004;2023-08-06T04:07:29;5.07;;;2.65;;
45065;SDS011;30830;53.704;10.004;2023-08-06T04:09:57;4.57;;;3.30;;
45065;SDS011;30830;53.704;10.004;2023-08-06T04:12:23;3.83;;;3.10;;
45065;SDS011;30830;53.704;10.004;2023-08-06T04:14:50;5.55;;;3.45;;
45065;SDS011;30830;53.704;10.004;2023-08-06T04:17:16;3.75;;;3.33;;
45065;SDS011;30830;53.704;10.004;2023-08-06T04:19:45;4.05;;;2.90;;
45065;SDS011;30830;53.704;10.004;2023-08-06T04:22:18;3.92;;;3.53;;
45065;SDS011;30830;53.704;10.004;2023-08-06T04:24:44;3.30;;;2.67;;
45065;SDS011;30830;53.704;10.004;2023-08-06T04:27:09;3.95;;;3.15;;
45065;SDS011;30830;53.704;10.004;2023-08-06T04:29:36;4.75;;;2.90;;
45065;SDS011;30830;53.704;10.004;2023-08-06T04:32:03;4.25;;;2.97;;
45065;SDS011;30830;53.704;10.004;2023-08-06T04:34:29;3.83;;;3.15;;
45065;SDS011;30830;53.704;10.004;2023-08-06T04:36:54;3.58;;;3.10;;
45065;SDS011;30830;53.704;10.004;2023-08-06T04:39:20;3.72;;;3.20;;
45065;SDS011;30830;53.704;10.004;2023-08-06T04:41:45;4.35;;;2.80;;
45065;SDS011;30830;53.704;10.004;2023-08-06T04:44:11;6.65;;;3.53;;
45065;SDS011;30830;53.704;10.004;2023-08-06T04:46:37;4.57;;;2.90;;
45065;SDS011;30830;53.704;10.004;2023-08-06T04:49:02;4.85;;;2.92;;
45065;SDS011;30830;53.704;10.004;2023-08-06T04:51:28;3.65;;;3.08;;
45065;SDS011;30830;53.704;10.004;2023-08-06T04:53:53;2.90;;;2.70;;
45065;SDS011;30830;53.704;10.004;2023-08-06T04:56:19;5.45;;;3.53;;
45065;SDS011;30830;53.704;10.004;2023-08-06T04:58:44;3.47;;;2.67;;
45065;SDS011;30830;53.704;10.004;2023-08-06T05:01:10;3.13;;;2.83;;
45065;SDS011;30830;53.704;10.004;2023-08-06T05:03:38;3.90;;;2.95;;
45065;SDS011;30830;53.704;10.004;2023-08-06T05:06:04;4.15;;;2.80;;
45065;SDS011;30830;53.704;10.004;2023-08-06T05:08:30;5.25;;;3.63;;
45065;SDS011;30830;53.704;10.004;2023-08-06T05:10:55;5.18;;;4.00;;
45065;SDS011;30830;53.704;10.004;2023-08-06T05:13:21;4.68;;;3.33;;
45065;SDS011;30830;53.704;10.004;2023-08-06T05:15:46;3.60;;;3.25;;
45065;SDS011;30830;53.704;10.004;2023-08-06T05:18:12;4.53;;;3.35;;
45065;SDS011;30830;53.704;10.004;2023-08-06T05:20:38;6.32;;;3.95;;
45065;SDS011;30830;53.704;10.004;2023-08-06T05:23:05;5.13;;;3.60;;
45065;SDS011;30830;53.704;10.004;2023-08-06T05:25:31;5.30;;;2.92;;
45065;SDS011;30830;53.704;10.004;2023-08-06T05:27:56;4.30;;;3.47;;
45065;SDS011;30830;53.704;10.004;2023-08-06T05:30:22;5.13;;;3.47;;
45065;SDS011;30830;53.704;10.004;2023-08-06T05:32:48;3.90;;;3.25;;
45065;SDS011;30830;53.704;10.004;2023-08-06T05:35:13;4.97;;;3.33;;
45065;SDS011;30830;53.704;10.004;2023-08-06T05:37:39;4.63;;;2.85;;
45065;SDS011;30830;53.704;10.004;2023-08-06T05:40:04;5.68;;;3.50;;
45065;SDS011;30830;53.704;10.004;2023-08-06T05:42:30;4.13;;;3.42;;
45065;SDS011;30830;53.704;10.004;2023-08-06T05:44:56;4.43;;;3.85;;
45065;SDS011;30830;53.704;10.004;2023-08-06T05:47:21;6.20;;;3.63;;
45065;SDS011;30830;53.704;10.004;2023-08-06T05:49:47;6.90;;;4.32;;
45065;SDS011;30830;53.704;10.004;2023-08-06T05:52:13;5.88;;;4.00;;
45065;SDS011;30830;53.704;10.004;2023-08-06T05:54:38;4.45;;;3.70;;
45065;SDS011;30830;53.704;10.004;2023-08-06T05:57:05;5.38;;;4.07;;
45065;SDS011;30830;53.704;10.004;2023-08-06T05:59:31;4.00;;;3.45;;
45065;SDS011;30830;53.704;10.004;2023-08-06T06:01:56;4.82;;;4.15;;
45065;SDS011;30830;53.704;10.004;2023-08-06T06:04:22;5.65;;;3.10;;
45065;SDS011;30830;53.704;10.004;2023-08-06T06:06:48;7.03;;;4.43;;
45065;SDS011;30830;53.704;10.004;2023-08-06T06:09:13;4.82;;;4.07;;
45065;SDS011;30830;53.704;10.004;2023-08-06T06:11:39;4.65;;;3.90;;
45065;SDS011;30830;53.704;10.004;2023-08-06T06:14:04;4.90;;;3.38;;
45065;SDS011;30830;53.704;10.004;2023-08-06T06:16:30;6.10;;;3.60;;
45065;SDS011;30830;53.704;10.004;2023-08-06T06:18:55;4.53;;;4.13;;
45065;SDS011;30830;53.704;10.004;2023-08-06T06:21:22;5.50;;;3.78;;
45065;SDS011;30830;53.704;10.004;2023-08-06T06:23:48;4.03;;;3.63;;
45065;SDS011;30830;53.704;10.004;2023-08-06T06:26:16;7.00;;;4.10;;
45065;SDS011;30830;53.704;10.004;2023-08-06T06:28:44;4.65;;;3.33;;
45065;SDS011;30830;53.704;10.004;2023-08-06T06:31:10;4.82;;;4.35;;
45065;SDS011;30830;53.704;10.004;2023-08-06T06:33:36;5.97;;;3.72;;
45065;SDS011;30830;53.704;10.004;2023-08-06T06:36:01;5.50;;;3.85;;
45065;SDS011;30830;53.704;10.004;2023-08-06T06:38:32;6.10;;;3.45;;
45065;SDS011;30830;53.704;10.004;2023-08-06T06:40:58;6.18;;;3.58;;
45065;SDS011;30830;53.704;10.004;2023-08-06T06:43:24;7.50;;;4.07;;
45065;SDS011;30830;53.704;10.004;2023-08-06T06:45:57;4.10;;;3.70;;
45065;SDS011;30830;53.704;10.004;2023-08-06T06:48:32;5.43;;;4.43;;
45065;SDS011;30830;53.704;10.004;2023-08-06T06:50:58;6.35;;;4.22;;
45065;SDS011;30830;53.704;10.004;2023-08-06T06:53:24;5.95;;;3.50;;
45065;SDS011;30830;53.704;10.004;2023-08-06T06:55:52;5.55;;;3.25;;
45065;SDS011;30830;53.704;10.004;2023-08-06T06:58:19;6.05;;;4.68;;
45065;SDS011;30830;53.704;10.004;2023-08-06T07:00:45;4.72;;;3.88;;
45065;SDS011;30830;53.704;10.004;2023-08-06T07:03:11;4.45;;;3.53;;
45065;SDS011;30830;53.704;10.004;2023-08-06T07:05:36;6.05;;;3.80;;
45065;SDS011;30830;53.704;10.004;2023-08-06T07:08:02;6.68;;;3.72;;
45065;SDS011;30830;53.704;10.004;2023-08-06T07:10:28;7.60;;;4.45;;
45065;SDS011;30830;53.704;10.004;2023-08-06T07:12:53;4.88;;;4.03;;
45065;SDS011;30830;53.704;10.004;2023-08-06T07:15:19;4.90;;;3.72;;
45065;SDS011;30830;53.704;10.004;2023-08-06T07:17:45;4.50;;;3.72;;
45065;SDS011;30830;53.704;10.004;2023-08-06T07:20:11;5.40;;;4.28;;
45065;SDS011;30830;53.704;10.004;2023-08-06T07:22:36;7.60;;;4.38;;
45065;SDS011;30830;53.704;10.004;2023-08-06T07:25:02;5.40;;;3.75;;
45065;SDS011;30830;53.704;10.004;2023-08-06T07:27:28;4.85;;;4.35;;
45065;SDS011;30830;53.704;10.004;2023-08-06T07:29:53;4.53;;;3.78;;
45065;SDS011;30830;53.704;10.004;2023-08-06T07:32:19;6.35;;;4.25;;
45065;SDS011;30830;53.704;10.004;2023-08-06T07:34:45;6.93;;;4.32;;
45065;SDS011;30830;53.704;10.004;2023-08-06T07:37:10;5.53;;;4.00;;
45065;SDS011;30830;53.704;10.004;2023-08-06T07:39:36;6.68;;;4.15;;
45065;SDS011;30830;53.704;10.004;2023-08-06T07:42:04;10.00;;;3.90;;
45065;SDS011;30830;53.704;10.004;2023-08-06T07:44:32;5.38;;;4.05;;
45065;SDS011;30830;53.704;10.004;2023-08-06T07:46:57;6.03;;;4.35;;
45065;SDS011;30830;53.704;10.004;2023-08-06T07:49:23;5.57;;;4.22;;
45065;SDS011;30830;53.704;10.004;2023-08-06T07:51:48;8.07;;;4.93;;
45065;SDS011;30830;53.704;10.004;2023-08-06T07:54:14;7.03;;;4.45;;
45065;SDS011;30830;53.704;10.004;2023-08-06T07:56:39;4.40;;;4.00;;
45065;SDS011;30830;53.704;10.004;2023-08-06T07:59:05;5.63;;;4.63;;
45065;SDS011;30830;53.704;10.004;2023-08-06T08:01:30;6.18;;;4.22;;
45065;SDS011;30830;53.704;10.004;2023-08-06T08:03:56;6.55;;;4.78;;
45065;SDS011;30830;53.704;10.004;2023-08-06T08:06:22;6.18;;;4.78;;
45065;SDS011;30830;53.704;10.004;2023-08-06T08:08:48;9.25;;;5.07;;
45065;SDS011;30830;53.704;10.004;2023-08-06T08:11:14;6.57;;;4.40;;
45065;SDS011;30830;53.704;10.004;2023-08-06T08:13:41;7.38;;;4.93;;
45065;SDS011;30830;53.704;10.004;2023-08-06T08:16:06;5.40;;;4.15;;
45065;SDS011;30830;53.704;10.004;2023-08-06T08:18:32;5.72;;;4.57;;
45065;SDS011;30830;53.704;10.004;2023-08-06T08:20:58;7.32;;;4.72;;
45065;SDS011;30830;53.704;10.004;2023-08-06T08:23:23;8.68;;;4.70;;
45065;SDS011;30830;53.704;10.004;2023-08-06T08:25:49;8.25;;;5.00;;
45065;SDS011;30830;53.704;10.004;2023-08-06T08:28:14;5.20;;;4.70;;
45065;SDS011;30830;53.704;10.004;2023-08-06T08:30:41;9.93;;;5.05;;
45065;SDS011;30830;53.704;10.004;2023-08-06T08:33:06;6.88;;;5.03;;
45065;SDS011;30830;53.704;10.004;2023-08-06T08:35:33;6.68;;;4.85;;
45065;SDS011;30830;53.704;10.004;2023-08-06T08:37:58;6.68;;;4.72;;
45065;SDS011;30830;53.704;10.004;2023-08-06T08:40:26;7.65;;;4.78;;
45065;SDS011;30830;53.704;10.004;2023-08-06T08:42:57;6.43;;;4.90;;
45065;SDS011;30830;53.704;10.004;2023-08-06T08:45:24;5.72;;;4.40;;
45065;SDS011;30830;53.704;10.004;2023-08-06T08:47:53;5.43;;;4.93;;
45065;SDS011;30830;53.704;10.004;2023-08-06T08:50:19;6.40;;;5.28;;
45065;SDS011;30830;53.704;10.004;2023-08-06T08:52:46;6.40;;;5.80;;
45065;SDS011;30830;53.704;10.004;2023-08-06T08:55:14;11.25;;;5.50;;
45065;SDS011;30830;53.704;10.004;2023-08-06T08:57:40;5.95;;;5.32;;
45065;SDS011;30830;53.704;10.004;2023-08-06T09:00:06;7.28;;;5.90;;
45065;SDS011;30830;53.704;10.004;2023-08-06T09:02:32;10.48;;;6.40;;
45065;SDS011;30830;53.704;10.004;2023-08-06T09:04:59;8.05;;;6.00;;
45065;SDS011;30830;53.704;10.004;2023-08-06T09:07:27;6.15;;;5.60;;
45065;SDS011;30830;53.704;10.004;2023-08-06T09:10:01;5.88;;;5.13;;
45065;SDS011;30830;53.704;10.004;2023-08-06T09:12:30;6.25;;;5.35;;
45065;SDS011;30830;53.704;10.004;2023-08-06T09:14:57;7.78;;;6.00;;
45065;SDS011;30830;53.704;10.004;2023-08-06T09:17:22;8.82;;;6.30;;
45065;SDS011;30830;53.704;10.004;2023-08-06T09:19:48;9.35;;;5.60;;
45065;SDS011;30830;53.704;10.004;2023-08-06T09:22:15;6.70;;;5.95;;
45065;SDS011;30830;53.704;10.004;2023-08-06T09:24:41;7.22;;;6.50;;
45065;SDS011;30830;53.704;10.004;2023-08-06T09:27:10;6.60;;;5.97;;
45065;SDS011;30830;53.704;10.004;2023-08-06T09:29:45;8.20;;;5.65;;
45065;SDS011;30830;53.704;10.004;2023-08-06T09:32:12;6.25;;;5.53;;
45065;SDS011;30830;53.704;10.004;2023-08-06T09:34:39;7.18;;;6.43;;
45065;SDS011;30830;53.704;10.004;2023-08-06T09:37:07;9.50;;;6.65;;
45065;SDS011;30830;53.704;10.004;2023-08-06T09:39:37;6.25;;;5.47;;
45065;SDS011;30830;53.704;10.004;2023-08-06T09:42:05;5.70;;;5.15;;
45065;SDS011;30830;53.704;10.004;2023-08-06T09:44:31;7.43;;;6.32;;
45065;SDS011;30830;53.704;10.004;2023-08-06T09:47:01;6.90;;;5.47;;
45065;SDS011;30830;53.704;10.004;2023-08-06T09:49:28;5.53;;;4.80;;
45065;SDS011;30830;53.704;10.004;2023-08-06T09:52:17;6.07;;;5.22;;
45065;SDS011;30830;53.704;10.004;2023-08-06T09:54:43;7.40;;;5.47;;
45065;SDS011;30830;53.704;10.004;2023-08-06T09:57:09;8.95;;;5.72;;
45065;SDS011;30830;53.704;10.004;2023-08-06T09:59:37;4.50;;;4.13;;
45065;SDS011;30830;53.704;10.004;2023-08-06T10:02:07;5.88;;;4.90;;
45065;SDS011;30830;53.704;10.004;2023-08-06T10:04:37;6.97;;;5.13;;
45065;SDS011;30830;53.704;10.004;2023-08-06T10:07:04;6.13;;;5.53;;
45065;SDS011;30830;53.704;10.004;2023-08-06T10:09:30;6.30;;;5.53;;
45065;SDS011;30830;53.704;10.004;2023-08-06T10:11:56;6.75;;;5.57;;
45065;SDS011;30830;53.704;10.004;2023-08-06T10:14:25;6.03;;;5.05;;
45065;SDS011;30830;53.704;10.004;2023-08-06T10:16:59;6.15;;;5.55;;
45065;SDS011;30830;53.704;10.004;2023-08-06T10:19:26;8.50;;;5.97;;
45065;SDS011;30830;53.704;10.004;2023-08-06T10:24:52;6.65;;;5.88;;
45065;SDS011;30830;53.704;10.004;2023-08-06T10:27:19;7.47;;;6.13;;
45065;SDS011;30830;53.704;10.004;2023-08-06T10:29:46;5.57;;;5.07;;
45065;SDS011;30830;53.704;10.004;2023-08-06T10:32:12;7.28;;;6.07;;
45065;SDS011;30830;53.704;10.004;2023-08-06T10:37:52;6.80;;;5.55;;
45065;SDS011;30830;53.704;10.004;2023-08-06T10:40:20;7.00;;;5.50;;
45065;SDS011;30830;53.704;10.004;2023-08-06T10:42:46;7.22;;;6.53;;
45065;SDS011;30830;53.704;10.004;2023-08-06T10:45:12;6.22;;;5.45;;
45065;SDS011;30830;53.704;10.004;2023-08-06T10:47:39;7.03;;;6.18;;
45065;SDS011;30830;53.704;10.004;2023-08-06T10:50:06;6.20;;;4.93;;
45065;SDS011;30830;53.704;10.004;2023-08-06T10:52:45;6.43;;;5.70;;
45065;SDS011;30830;53.704;10.004;2023-08-06T10:55:12;6.88;;;5.63;;
45065;SDS011;30830;53.704;10.004;2023-08-06T10:57:46;6.55;;;5.50;;
45065;SDS011;30830;53.704;10.004;2023-08-06T11:00:12;7.25;;;5.50;;
45065;SDS011;30830;53.704;10.004;2023-08-06T11:02:39;6.25;;;5.55;;
45065;SDS011;30830;53.704;10.004;2023-08-06T11:05:08;7.68;;;6.22;;
45065;SDS011;30830;53.704;10.004;2023-08-06T11:07:35;6.75;;;5.45;;
45065;SDS011;30830;53.704;10.004;2023-08-06T11:10:07;5.65;;;5.15;;
45065;SDS011;30830;53.704;10.004;2023-08-06T11:12:37;8.02;;;5.90;;
45065;SDS011;30830;53.704;10.004;2023-08-06T11:15:03;5.97;;;5.28;;
45065;SDS011;30830;53.704;10.004;2023-08-06T11:17:30;7.53;;;6.47;;
45065;SDS011;30830;53.704;10.004;2023-08-06T11:19:59;7.15;;;5.53;;
45065;SDS011;30830;53.704;10.004;2023-08-06T11:22:26;6.07;;;5.47;;
45065;SDS011;30830;53.704;10.004;2023-08-06T11:24:52;7.55;;;6.25;;
45065;SDS011;30830;53.704;10.004;2023-08-06T11:27:18;6.82;;;5.60;;
45065;SDS011;30830;53.704;10.004;2023-08-06T11:29:44;6.53;;;5.93;;
45065;SDS011;30830;53.704;10.004;2023-08-06T11:32:10;5.53;;;5.00;;
45065;SDS011;30830;53.704;10.004;2023-08-06T11:34:37;6.78;;;4.72;;
45065;SDS011;30830;53.704;10.004;2023-08-06T11:37:03;5.25;;;4.75;;
45065;SDS011;30830;53.704;10.004;2023-08-06T11:39:31;6.22;;;5.63;;
45065;SDS011;30830;53.704;10.004;2023-08-06T11:41:57;6.10;;;5.38;;
45065;SDS011;30830;53.704;10.004;2023-08-06T11:44:25;6.30;;;5.68;;
45065;SDS011;30830;53.704;10.004;2023-08-06T11:46:55;7.90;;;5.57;;
45065;SDS011;30830;53.704;10.004;2023-08-06T11:49:40;10.48;;;6.50;;
45065;SDS011;30830;53.704;10.004;2023-08-06T11:52:14;7.15;;;5.68;;
45065;SDS011;30830;53.704;10.004;2023-08-06T11:54:45;6.10;;;5.50;;
45065;SDS011;30830;53.704;10.004;2023-08-06T11:57:31;6.13;;;5.53;;
45065;SDS011;30830;53.704;10.004;2023-08-06T12:00:06;7.20;;;5.63;;
45065;SDS011;30830;53.704;10.004;2023-08-06T12:02:34;6.22;;;4.88;;
45065;SDS011;30830;53.704;10.004;2023-08-06T12:05:20;7.50;;;6.15;;
45065;SDS011;30830;53.704;10.004;2023-08-06T12:07:58;7.75;;;5.70;;
45065;SDS011;30830;53.704;10.004;2023-08-06T12:10:25;8.82;;;6.57;;
45065;SDS011;30830;53.704;10.004;2023-08-06T12:12:53;8.00;;;5.63;;
45065;SDS011;30830;53.704;10.004;2023-08-06T12:15:19;8.52;;;6.38;;
45065;SDS011;30830;53.704;10.004;2023-08-06T12:17:45;7.95;;;6.53;;
45065;SDS011;30830;53.704;10.004;2023-08-06T12:20:10;8.15;;;5.82;;
45065;SDS011;30830;53.704;10.004;2023-08-06T12:22:36;8.05;;;5.63;;
45065;SDS011;30830;53.704;10.004;2023-08-06T12:25:05;6.82;;;5.30;;
45065;SDS011;30830;53.704;10.004;2023-08-06T12:27:36;6.50;;;5.90;;
45065;SDS011;30830;53.704;10.004;2023-08-06T12:30:07;7.70;;;6.35;;
45065;SDS011;30830;53.704;10.004;2023-08-06T12:32:34;7.43;;;5.93;;
45065;SDS011;30830;53.704;10.004;2023-08-06T12:35:00;5.93;;;4.80;;
45065;SDS011;30830;53.704;10.004;2023-08-06T12:37:26;5.72;;;4.63;;
45065;SDS011;30830;53.704;10.004;2023-08-06T12:39:52;6.38;;;5.05;;
45065;SDS011;30830;53.704;10.004;2023-08-06T12:42:18;7.70;;;4.57;;
45065;SDS011;30830;53.704;10.004;2023-08-06T12:44:44;7.03;;;4.50;;
45065;SDS011;30830;53.704;10.004;2023-08-06T12:47:09;7.80;;;4.47;;
45065;SDS011;30830;53.704;10.004;2023-08-06T12:49:35;5.15;;;3.83;;
45065;SDS011;30830;53.704;10.004;2023-08-06T12:52:01;7.72;;;4.43;;
45065;SDS011;30830;53.704;10.004;2023-08-06T12:54:29;4.05;;;3.05;;
45065;SDS011;30830;53.704;10.004;2023-08-06T12:57:00;5.35;;;3.78;;
45065;SDS011;30830;53.704;10.004;2023-08-06T12:59:26;7.75;;;3.45;;
45065;SDS011;30830;53.704;10.004;2023-08-06T13:01:52;5.53;;;3.50;;
45065;SDS011;30830;53.704;10.004;2023-08-06T13:04:18;6.38;;;3.53;;
45065;SDS011;30830;53.704;10.004;2023-08-06T13:06:43;3.00;;;2.67;;
45065;SDS011;30830;53.704;10.004;2023-08-06T13:09:09;3.30;;;3.00;;
45065;SDS011;30830;53.704;10.004;2023-08-06T13:11:35;3.42;;;3.08;;
45065;SDS011;30830;53.704;10.004;2023-08-06T13:14:09;3.65;;;2.92;;
45065;SDS011;30830;53.704;10.004;2023-08-06T13:16:36;6.05;;;3.25;;
45065;SDS011;30830;53.704;10.004;2023-08-06T13:19:03;3.55;;;2.95;;
45065;SDS011;30830;53.704;10.004;2023-08-06T13:21:33;3.95;;;2.72;;
45065;SDS011;30830;53.704;10.004;2023-08-06T13:24:01;3.28;;;2.63;;
45065;SDS011;30830;53.704;10.004;2023-08-06T13:26:28;4.32;;;2.90;;
45065;SDS011;30830;53.704;10.004;2023-08-06T13:28:57;4.25;;;2.83;;
45065;SDS011;30830;53.704;10.004;2023-08-06T13:31:24;5.20;;;2.65;;
45065;SDS011;30830;53.704;10.004;2023-08-06T13:33:54;3.70;;;2.80;;
45065;SDS011;30830;53.704;10.004;2023-08-06T13:36:29;5.03;;;2.85;;
45065;SDS011;30830;53.704;10.004;2023-08-06T13:38:57;4.95;;;2.80;;
45065;SDS011;30830;53.704;10.004;2023-08-06T13:41:23;2.70;;;2.33;;
45065;SDS011;30830;53.704;10.004;2023-08-06T13:43:51;1.90;;;1.67;;
45065;SDS011;30830;53.704;10.004;2023-08-06T13:46:17;3.00;;;2.13;;
45065;SDS011;30830;53.704;10.004;2023-08-06T13:48:45;3.83;;;2.45;;
45065;SDS011;30830;53.704;10.004;2023-08-06T13:51:11;3.80;;;2.28;;
45065;SDS011;30830;53.704;10.004;2023-08-06T13:53:38;5.03;;;2.53;;
45065;SDS011;30830;53.704;10.004;2023-08-06T13:56:08;3.25;;;2.58;;
45065;SDS011;30830;53.704;10.004;2023-08-06T13:58:40;3.63;;;2.22;;
45065;SDS011;30830;53.704;10.004;2023-08-06T14:01:05;4.72;;;2.22;;
45065;SDS011;30830;53.704;10.004;2023-08-06T14:03:31;3.15;;;2.65;;
45065;SDS011;30830;53.704;10.004;2023-08-06T14:05:57;3.35;;;2.63;;
45065;SDS011;30830;53.704;10.004;2023-08-06T14:08:26;3.00;;;2.70;;
45065;SDS011;30830;53.704;10.004;2023-08-06T14:10:52;4.90;;;2.20;;
45065;SDS011;30830;53.704;10.004;2023-08-06T14:13:18;2.95;;;2.22;;
45065;SDS011;30830;53.704;10.004;2023-08-06T14:15:44;2.65;;;2.22;;
45065;SDS011;30830;53.704;10.004;2023-08-06T14:18:13;3.38;;;2.15;;
45065;SDS011;30830;53.704;10.004;2023-08-06T14:20:39;2.75;;;2.13;;
45065;SDS011;30830;53.704;10.004;2023-08-06T14:23:05;3.75;;;2.53;;
45065;SDS011;30830;53.704;10.004;2023-08-06T14:25:31;3.03;;;2.72;;
45065;SDS011;30830;53.704;10.004;2023-08-06T14:27:57;2.38;;;2.00;;
45065;SDS011;30830;53.704;10.004;2023-08-06T14:30:22;3.72;;;2.47;;
45065;SDS011;30830;53.704;10.004;2023-08-06T14:32:48;2.97;;;2.50;;
45065;SDS011;30830;53.704;10.004;2023-08-06T14:35:14;3.92;;;2.47;;
45065;SDS011;30830;53.704;10.004;2023-08-06T14:37:39;4.20;;;2.58;;
45065;SDS011;30830;53.704;10.004;2023-08-06T14:40:06;3.42;;;2.65;;
45065;SDS011;30830;53.704;10.004;2023-08-06T14:42:33;3.03;;;2.22;;
45065;SDS011;30830;53.704;10.004;2023-08-06T14:44:58;5.93;;;2.72;;